createdAt,value
2022-08-19T00:01:57.301Z,26.60
2022-08-19T00:04:30.055Z,26.60
2022-08-19T00:06:58.316Z,26.60
2022-08-19T00:09:27.761Z,26.60
2022-08-19T00:11:57.795Z,26.60
2022-08-19T00:14:32.900Z,26.60
2022-08-19T00:17:03.895Z,26.60
2022-08-19T00:19:33.262Z,26.50
2022-08-19T00:22:02.120Z,26.50
2022-08-19T00:24:30.725Z,26.50
2022-08-19T00:27:04.949Z,26.50
2022-08-19T00:29:52.514Z,26.40
2022-08-19T00:32:21.336Z,26.40
2022-08-19T00:34:49.865Z,26.40
2022-08-19T00:37:18.385Z,26.40
2022-08-19T00:39:49.144Z,26.40
2022-08-19T00:42:18.035Z,26.40
2022-08-19T00:44:46.151Z,26.30
2022-08-19T00:47:16.248Z,26.30
2022-08-19T00:49:52.074Z,26.30
2022-08-19T00:52:24.746Z,26.30
2022-08-19T00:54:54.329Z,26.20
2022-08-19T00:57:32.108Z,26.20
2022-08-19T01:00:03.277Z,26.20
2022-08-19T01:02:34.331Z,26.20
2022-08-19T01:05:05.328Z,26.20
2022-08-19T01:07:35.839Z,26.10
2022-08-19T01:10:09.834Z,26.10
2022-08-19T01:12:38.927Z,26.10
2022-08-19T01:15:08.817Z,26.10
2022-08-19T01:17:41.629Z,26.10
2022-08-19T01:20:13.269Z,26.10
2022-08-19T01:22:47.842Z,26.10
2022-08-19T01:25:17.400Z,26.10
2022-08-19T01:27:50.053Z,26.10
2022-08-19T01:30:34.197Z,26.10
2022-08-19T01:33:03.317Z,26.10
2022-08-19T01:35:33.255Z,26.10
2022-08-19T01:38:09.411Z,26.00
2022-08-19T01:40:40.993Z,26.00
2022-08-19T01:43:09.851Z,26.00
2022-08-19T01:45:41.196Z,26.00
2022-08-19T01:48:10.313Z,26.00
2022-08-19T01:50:39.550Z,26.00
2022-08-19T01:53:13.726Z,26.00
2022-08-19T01:55:45.051Z,26.00
2022-08-19T01:58:16.409Z,26.00
2022-08-19T02:00:46.319Z,26.00
2022-08-19T02:03:15.598Z,26.00
2022-08-19T02:05:44.534Z,25.90
2022-08-19T02:08:14.807Z,26.00
2022-08-19T02:10:45.346Z,25.90
2022-08-19T02:13:14.805Z,25.90
2022-08-19T02:15:43.637Z,25.90
2022-08-19T02:18:12.306Z,25.90
2022-08-19T02:20:42.475Z,26.00
2022-08-19T02:23:13.311Z,25.90
2022-08-19T02:25:45.380Z,25.90
2022-08-19T02:28:18.353Z,25.90
2022-08-19T02:30:48.778Z,25.90
2022-08-19T02:33:17.390Z,25.90
2022-08-19T02:35:46.329Z,25.90
2022-08-19T02:38:30.358Z,25.90
2022-08-19T02:41:02.251Z,25.90
2022-08-19T02:43:33.809Z,25.90
2022-08-19T02:46:03.537Z,25.90
2022-08-19T02:48:32.922Z,25.90
2022-08-19T02:51:01.407Z,25.90
2022-08-19T02:53:30.350Z,25.90
2022-08-19T02:56:00.442Z,25.90
2022-08-19T02:58:28.785Z,25.80
2022-08-19T03:00:59.443Z,25.80
2022-08-19T03:03:28.170Z,25.80
2022-08-19T03:06:10.560Z,25.70
2022-08-19T03:08:39.736Z,25.70
2022-08-19T03:11:16.022Z,25.90
2022-08-19T03:13:44.809Z,25.70
2022-08-19T03:16:14.907Z,25.70
2022-08-19T03:18:44.007Z,25.70
2022-08-19T03:21:17.381Z,25.70
2022-08-19T03:23:46.099Z,25.70
2022-08-19T03:26:17.238Z,25.70
2022-08-19T03:28:51.124Z,24.50
2022-08-19T03:31:43.806Z,25.70
2022-08-19T03:34:12.683Z,25.70
2022-08-19T03:36:42.964Z,25.70
2022-08-19T03:39:13.015Z,25.70
2022-08-19T03:41:48.271Z,25.70
2022-08-19T03:44:19.044Z,25.70
2022-08-19T03:46:50.069Z,25.70
2022-08-19T03:49:18.716Z,25.70
2022-08-19T03:51:50.284Z,25.70
2022-08-19T03:54:20.473Z,25.70
2022-08-19T03:56:51.883Z,25.70
2022-08-19T03:59:26.092Z,25.70
2022-08-19T04:01:55.541Z,25.70
2022-08-19T04:04:24.062Z,25.60
2022-08-19T04:06:53.048Z,25.60
2022-08-19T04:09:22.863Z,25.70
2022-08-19T04:11:55.731Z,25.60
2022-08-19T04:14:26.503Z,25.70
2022-08-19T04:16:54.703Z,25.70
2022-08-19T04:19:22.899Z,25.60
2022-08-19T04:21:53.640Z,25.60
2022-08-19T04:24:23.176Z,25.60
2022-08-19T04:26:53.425Z,25.70
2022-08-19T04:29:25.922Z,25.60
2022-08-19T04:31:56.180Z,25.60
2022-08-19T04:34:27.381Z,25.60
2022-08-19T04:36:58.538Z,25.60
2022-08-19T04:39:49.691Z,25.60
2022-08-19T04:42:38.038Z,25.60
2022-08-19T04:45:09.224Z,25.60
2022-08-19T04:47:47.638Z,25.50
2022-08-19T04:50:21.678Z,25.50
2022-08-19T04:52:52.595Z,25.50
2022-08-19T04:55:21.456Z,25.50
2022-08-19T04:57:51.744Z,25.50
2022-08-19T05:00:20.548Z,25.50
2022-08-19T05:02:50.356Z,25.50
2022-08-19T05:05:18.732Z,25.50
2022-08-19T05:07:47.319Z,25.50
2022-08-19T05:10:15.382Z,25.50
2022-08-19T05:12:43.900Z,25.50
2022-08-19T05:15:13.657Z,25.50
2022-08-19T05:18:03.681Z,25.50
2022-08-19T05:20:49.186Z,25.50
2022-08-19T05:23:22.096Z,25.50
2022-08-19T05:25:51.694Z,25.50
2022-08-19T05:28:20.499Z,25.50
2022-08-19T05:30:52.307Z,25.50
2022-08-19T05:33:20.770Z,25.50
2022-08-19T05:35:49.781Z,25.50
2022-08-19T05:38:18.478Z,25.50
2022-08-19T05:40:50.437Z,25.50
2022-08-19T05:43:18.612Z,25.50
2022-08-19T05:45:47.153Z,25.60
2022-08-19T05:48:18.865Z,25.60
2022-08-19T05:50:47.779Z,25.60
2022-08-19T05:53:17.800Z,25.60
2022-08-19T05:55:45.926Z,25.60
2022-08-19T05:58:14.267Z,25.60
2022-08-19T06:00:45.562Z,25.60
2022-08-19T06:03:13.659Z,25.60
2022-08-19T06:05:51.478Z,25.60
2022-08-19T06:08:34.178Z,25.60
2022-08-19T06:11:16.727Z,25.60
2022-08-19T06:13:46.514Z,25.70
2022-08-19T06:16:20.425Z,25.70
2022-08-19T06:18:48.517Z,25.70
2022-08-19T06:21:18.439Z,25.70
2022-08-19T06:23:48.787Z,25.70
2022-08-19T06:26:17.505Z,25.70
2022-08-19T06:28:47.727Z,25.70
2022-08-19T06:31:17.175Z,25.70
2022-08-19T06:33:46.635Z,25.80
2022-08-19T06:36:21.931Z,25.80
2022-08-19T06:38:54.422Z,25.80
2022-08-19T06:41:23.098Z,25.90
2022-08-19T06:43:53.971Z,25.90
2022-08-19T06:46:23.254Z,25.90
2022-08-19T06:48:54.355Z,25.90
2022-08-19T06:51:26.423Z,26.00
2022-08-19T06:54:00.444Z,26.00
2022-08-19T06:56:34.733Z,26.00
2022-08-19T06:59:04.071Z,26.00
2022-08-19T07:01:32.572Z,26.10
2022-08-19T07:04:01.504Z,26.10
2022-08-19T07:06:43.469Z,26.10
2022-08-19T07:09:18.462Z,26.10
2022-08-19T07:11:49.043Z,26.10
2022-08-19T07:14:20.045Z,26.10
2022-08-19T07:16:50.497Z,26.10
2022-08-19T07:19:20.045Z,26.10
2022-08-19T07:21:52.059Z,26.10
2022-08-19T07:24:21.918Z,26.10
2022-08-19T07:26:51.886Z,26.10
2022-08-19T07:29:25.569Z,26.10
2022-08-19T07:31:57.530Z,26.10
2022-08-19T07:34:29.299Z,26.10
2022-08-19T07:36:59.589Z,26.10
2022-08-19T07:39:34.680Z,26.10
2022-08-19T07:42:07.293Z,26.10
2022-08-19T07:44:36.530Z,26.10
2022-08-19T07:47:06.506Z,26.00
2022-08-19T07:49:35.333Z,26.00
2022-08-19T07:52:08.398Z,25.90
2022-08-19T07:54:39.763Z,25.90
2022-08-19T07:57:09.792Z,25.90
2022-08-19T07:59:38.174Z,25.80
2022-08-19T08:02:07.086Z,25.80
2022-08-19T08:04:52.752Z,25.80
2022-08-19T08:07:39.924Z,25.70
2022-08-19T08:10:21.306Z,25.70
2022-08-19T08:13:08.793Z,25.70
2022-08-19T08:15:42.690Z,25.70
2022-08-19T08:18:12.148Z,25.70
2022-08-19T08:20:41.556Z,25.60
2022-08-19T08:23:27.529Z,25.60
2022-08-19T08:25:57.931Z,25.60
2022-08-19T08:28:29.794Z,25.60
2022-08-19T08:30:59.677Z,25.60
2022-08-19T08:33:33.294Z,25.60
2022-08-19T08:36:04.252Z,25.60
2022-08-19T08:38:42.708Z,25.60
2022-08-19T08:41:20.145Z,25.60
2022-08-19T08:43:52.426Z,25.60
2022-08-19T08:46:31.514Z,25.60
2022-08-19T08:49:08.809Z,25.60
2022-08-19T08:54:14.656Z,25.70
2022-08-19T08:56:44.954Z,25.70
2022-08-19T08:59:22.858Z,25.70
2022-08-19T09:01:51.471Z,25.80
2022-08-19T09:04:19.942Z,25.80
2022-08-19T09:06:57.352Z,25.80
2022-08-19T09:09:33.388Z,25.80
2022-08-19T09:12:11.678Z,25.80
2022-08-19T09:14:50.862Z,25.80
2022-08-19T09:17:22.319Z,25.80
2022-08-19T09:19:56.709Z,25.80
2022-08-19T09:22:27.352Z,25.80
2022-08-19T09:24:57.570Z,25.80
2022-08-19T09:27:41.979Z,25.80
2022-08-19T09:30:15.785Z,25.80
2022-08-19T09:32:44.428Z,25.80
2022-08-19T09:35:14.266Z,25.80
2022-08-19T09:37:43.717Z,25.80
2022-08-19T09:40:15.557Z,25.80
2022-08-19T09:42:50.240Z,25.70
2022-08-19T09:45:23.249Z,25.70
2022-08-19T09:47:55.116Z,25.70
2022-08-19T09:50:25.179Z,25.70
2022-08-19T09:52:58.449Z,25.70
2022-08-19T09:55:31.136Z,25.70
2022-08-19T09:58:02.266Z,25.70
2022-08-19T10:00:31.743Z,25.70
2022-08-19T10:03:01.019Z,25.70
2022-08-19T10:05:48.585Z,25.70
2022-08-19T10:08:18.684Z,25.70
2022-08-19T10:10:52.016Z,25.70
2022-08-19T10:13:26.489Z,25.70
2022-08-19T10:15:57.305Z,25.70
2022-08-19T10:18:26.837Z,25.70
2022-08-19T10:21:04.707Z,25.70
2022-08-19T10:23:33.597Z,25.70
2022-08-19T10:26:05.124Z,25.70
2022-08-19T10:28:33.719Z,25.70
2022-08-19T10:31:07.836Z,25.70
2022-08-19T10:33:38.701Z,25.70
2022-08-19T10:36:23.554Z,25.60
2022-08-19T10:38:56.831Z,25.70
2022-08-19T10:41:28.413Z,25.60
2022-08-19T10:44:02.391Z,25.60
2022-08-19T10:46:33.998Z,25.60
2022-08-19T10:49:03.526Z,25.60
2022-08-19T10:51:50.028Z,25.60
2022-08-19T10:54:28.777Z,25.60
2022-08-19T10:57:01.034Z,25.60
2022-08-19T10:59:35.806Z,25.60
2022-08-19T11:02:07.427Z,25.60
2022-08-19T11:04:35.920Z,25.60
2022-08-19T11:07:04.743Z,25.60
2022-08-19T11:09:34.653Z,25.60
2022-08-19T11:12:04.830Z,25.60
2022-08-19T11:14:34.568Z,25.60
2022-08-19T11:17:02.789Z,25.60
2022-08-19T11:19:31.747Z,25.60
2022-08-19T11:22:02.358Z,25.60
2022-08-19T11:24:34.156Z,25.60
2022-08-19T11:27:10.546Z,25.60
2022-08-19T11:29:40.813Z,25.60
2022-08-19T11:32:12.967Z,25.60
2022-08-19T11:34:41.613Z,25.60
2022-08-19T11:37:10.428Z,25.60
2022-08-19T11:39:39.453Z,25.60
2022-08-19T11:42:23.456Z,25.60
2022-08-19T11:44:52.076Z,25.60
2022-08-19T11:47:20.344Z,25.60
2022-08-19T11:49:48.625Z,25.60
2022-08-19T11:52:16.863Z,25.50
2022-08-19T11:54:44.917Z,25.60
2022-08-19T11:57:16.309Z,25.60
2022-08-19T11:59:44.584Z,25.60
2022-08-19T12:02:12.802Z,25.60
2022-08-19T12:04:41.335Z,25.60
2022-08-19T12:07:09.871Z,25.70
2022-08-19T12:09:42.169Z,25.70
2022-08-19T12:12:11.096Z,25.70
2022-08-19T12:14:40.976Z,25.80
2022-08-19T12:17:10.125Z,25.80
2022-08-19T12:19:39.218Z,25.90
2022-08-19T12:22:08.597Z,25.90
2022-08-19T12:24:36.843Z,26.00
2022-08-19T12:27:05.567Z,26.00
2022-08-19T12:29:42.905Z,26.00
2022-08-19T12:32:12.141Z,26.10
2022-08-19T12:34:41.490Z,26.10
2022-08-19T12:37:10.577Z,26.10
2022-08-19T12:39:41.418Z,26.20
2022-08-19T12:42:09.802Z,26.20
2022-08-19T12:44:39.023Z,26.30
2022-08-19T12:47:13.044Z,26.30
2022-08-19T12:49:54.064Z,26.30
2022-08-19T12:52:25.919Z,26.30
2022-08-19T12:54:55.645Z,26.40
2022-08-19T12:57:32.123Z,26.30
2022-08-19T13:00:05.439Z,26.30
2022-08-19T13:02:38.475Z,26.30
2022-08-19T13:05:10.720Z,26.10
2022-08-19T13:07:41.563Z,26.10
2022-08-19T13:10:13.240Z,26.00
2022-08-19T13:12:43.298Z,25.90
2022-08-19T13:15:12.457Z,25.90
2022-08-19T13:17:42.438Z,25.80
2022-08-19T13:20:12.947Z,25.70
2022-08-19T13:22:41.104Z,25.70
2022-08-19T13:25:10.967Z,25.60
2022-08-19T13:27:39.799Z,25.50
2022-08-19T13:30:28.274Z,25.50
2022-08-19T13:33:12.866Z,25.40
2022-08-19T13:35:46.460Z,25.30
2022-08-19T13:38:16.333Z,25.30
2022-08-19T13:40:44.927Z,25.20
2022-08-19T13:43:17.882Z,25.20
2022-08-19T13:45:54.060Z,25.10
2022-08-19T13:48:24.578Z,25.10
2022-08-19T13:50:53.181Z,25.10
2022-08-19T13:53:21.267Z,25.10
2022-08-19T13:55:51.855Z,25.00
2022-08-19T13:58:20.284Z,25.00
2022-08-19T14:00:50.010Z,25.00
2022-08-19T14:03:18.099Z,25.00
2022-08-19T14:05:48.785Z,24.90
2022-08-19T14:08:16.846Z,24.90
2022-08-19T14:10:46.114Z,24.90
2022-08-19T14:13:17.368Z,24.90
2022-08-19T14:15:46.315Z,24.80
2022-08-19T14:18:14.412Z,24.80
2022-08-19T14:20:43.362Z,24.80
2022-08-19T14:23:14.806Z,24.80
2022-08-19T14:25:43.205Z,24.80
2022-08-19T14:28:11.845Z,24.70
2022-08-19T14:30:40.145Z,24.70
2022-08-19T14:33:09.810Z,24.60
2022-08-19T14:35:39.190Z,24.60
2022-08-19T14:38:09.169Z,24.50
2022-08-19T14:40:40.732Z,24.50
2022-08-19T14:43:09.235Z,24.40
2022-08-19T14:45:40.817Z,24.30
2022-08-19T14:48:19.064Z,24.30
2022-08-19T14:50:47.439Z,24.20
2022-08-19T14:53:15.602Z,24.20
2022-08-19T14:55:46.485Z,24.10
2022-08-19T14:58:29.733Z,24.10
2022-08-19T15:01:00.300Z,24.00
2022-08-19T15:03:29.283Z,23.90
2022-08-19T15:05:59.050Z,23.90
2022-08-19T15:08:27.945Z,23.80
2022-08-19T15:10:58.388Z,23.80
2022-08-19T15:13:28.730Z,23.80
2022-08-19T15:15:58.073Z,23.80
2022-08-19T15:18:26.946Z,23.70
2022-08-19T15:20:56.006Z,23.70
2022-08-19T15:23:24.940Z,23.70
2022-08-19T15:25:56.667Z,23.70
2022-08-19T15:28:27.985Z,23.60
2022-08-19T15:30:56.118Z,23.60
2022-08-19T15:33:24.183Z,23.60
2022-08-19T15:35:53.109Z,23.60
2022-08-19T15:38:24.454Z,23.50
2022-08-19T15:40:54.790Z,23.50
2022-08-19T15:43:23.740Z,23.50
2022-08-19T15:45:53.178Z,23.40
2022-08-19T15:48:21.682Z,23.40
2022-08-19T15:50:49.755Z,23.40
2022-08-19T15:53:18.296Z,23.30
2022-08-19T15:55:48.618Z,23.30
2022-08-19T15:58:35.122Z,23.30
2022-08-19T16:01:28.982Z,23.20
2022-08-19T16:04:16.824Z,23.20
2022-08-19T16:06:49.482Z,23.10
2022-08-19T16:09:23.651Z,23.10
2022-08-19T16:11:57.136Z,23.10
2022-08-19T16:14:29.676Z,23.10
2022-08-19T16:16:59.615Z,23.10
2022-08-19T16:19:28.087Z,23.00
2022-08-19T16:21:58.181Z,23.00
2022-08-19T16:24:28.490Z,22.90
2022-08-19T16:26:57.359Z,22.90
2022-08-19T16:29:34.244Z,22.90
2022-08-19T16:32:06.088Z,22.90
2022-08-19T16:34:34.669Z,22.90
2022-08-19T16:37:02.992Z,22.80
2022-08-19T16:39:31.642Z,22.80
2022-08-19T16:42:00.856Z,22.80
2022-08-19T16:44:30.182Z,22.80
2022-08-19T16:46:59.695Z,22.80
2022-08-19T16:49:53.709Z,22.80
2022-08-19T16:52:20.061Z,22.80
2022-08-19T16:54:49.404Z,22.80
2022-08-19T16:57:18.491Z,22.80
2022-08-19T16:59:49.324Z,22.80
2022-08-19T17:02:18.415Z,22.70
2022-08-19T17:04:58.339Z,22.70
2022-08-19T17:07:28.252Z,22.70
2022-08-19T17:09:56.743Z,22.70
2022-08-19T17:12:29.022Z,22.70
2022-08-19T17:14:59.361Z,22.60
2022-08-19T17:17:29.356Z,22.60
2022-08-19T17:19:59.378Z,22.60
2022-08-19T17:22:28.087Z,22.60
2022-08-19T17:24:58.315Z,22.60
2022-08-19T17:27:31.990Z,22.60
2022-08-19T17:30:01.686Z,22.50
2022-08-19T17:32:29.794Z,22.50
2022-08-19T17:34:59.247Z,22.50
2022-08-19T17:37:28.616Z,22.50
2022-08-19T17:39:56.833Z,22.50
2022-08-19T17:42:25.454Z,22.50
2022-08-19T17:44:53.639Z,22.50
2022-08-19T17:47:22.042Z,22.50
2022-08-19T17:49:50.564Z,22.50
2022-08-19T17:52:20.454Z,22.50
2022-08-19T17:54:49.054Z,22.50
2022-08-19T17:57:17.643Z,22.50
2022-08-19T17:59:46.500Z,22.50
2022-08-19T18:02:15.465Z,22.50
2022-08-19T18:04:48.816Z,22.50
2022-08-19T18:07:21.705Z,22.40
2022-08-19T18:09:52.896Z,22.50
2022-08-19T18:12:24.572Z,22.50
2022-08-19T18:14:53.198Z,22.50
2022-08-19T18:17:23.308Z,22.40
2022-08-19T18:19:51.944Z,22.40
2022-08-19T18:22:27.520Z,22.40
2022-08-19T18:24:57.717Z,22.40
2022-08-19T18:27:26.471Z,22.40
2022-08-19T18:29:59.569Z,22.40
2022-08-19T18:32:31.395Z,22.30
2022-08-19T18:35:02.794Z,22.30
2022-08-19T18:37:31.211Z,22.30
2022-08-19T18:40:18.370Z,22.30
2022-08-19T18:43:05.165Z,22.30
2022-08-19T18:45:51.022Z,22.20
2022-08-19T18:48:37.007Z,22.20
2022-08-19T18:51:05.231Z,22.20
2022-08-19T18:53:37.709Z,22.20
2022-08-19T18:56:08.113Z,22.10
2022-08-19T18:58:38.937Z,22.10
2022-08-19T19:01:11.614Z,22.10
2022-08-19T19:03:42.428Z,22.10
2022-08-19T19:06:10.622Z,22.10
2022-08-19T19:08:41.337Z,22.10
2022-08-19T19:11:11.173Z,22.00
2022-08-19T19:13:41.349Z,22.00
2022-08-19T19:16:11.633Z,22.00
2022-08-19T19:18:40.486Z,22.00
2022-08-19T19:21:09.286Z,22.00
2022-08-19T19:23:40.633Z,21.90
2022-08-19T19:26:10.841Z,21.90
2022-08-19T19:28:44.093Z,21.90
2022-08-19T19:31:14.624Z,21.90
2022-08-19T19:33:44.562Z,21.90
2022-08-19T19:36:14.158Z,21.80
2022-08-19T19:38:48.269Z,21.80
2022-08-19T19:41:23.462Z,21.80
2022-08-19T19:44:10.055Z,21.80
2022-08-19T19:46:42.686Z,21.80
2022-08-19T19:49:11.818Z,21.70
2022-08-19T19:51:41.187Z,21.80
2022-08-19T19:54:14.047Z,21.70
2022-08-19T19:56:45.509Z,21.80
2022-08-19T19:59:14.262Z,21.70
2022-08-19T20:01:46.279Z,21.70
2022-08-19T20:04:16.368Z,21.70
2022-08-19T20:06:44.726Z,21.60
2022-08-19T20:09:16.322Z,21.60
2022-08-19T20:11:53.657Z,21.60
2022-08-19T20:14:26.797Z,21.60
2022-08-19T20:16:57.177Z,21.60
2022-08-19T20:19:28.250Z,21.60
2022-08-19T20:21:57.890Z,21.60
2022-08-19T20:24:32.872Z,21.60
2022-08-19T20:27:03.368Z,21.60
2022-08-19T20:29:39.168Z,21.60
2022-08-19T20:32:11.242Z,21.60
2022-08-19T20:34:40.074Z,21.60
2022-08-19T20:37:09.429Z,21.60
2022-08-19T20:39:38.491Z,21.60
2022-08-19T20:42:08.324Z,21.60
2022-08-19T20:44:37.092Z,21.60
2022-08-19T20:47:05.337Z,21.60
2022-08-19T20:49:34.346Z,21.50
2022-08-19T20:52:03.751Z,21.50
2022-08-19T20:54:32.212Z,21.50
2022-08-19T20:57:01.100Z,21.50
2022-08-19T20:59:30.815Z,21.50
2022-08-19T21:01:59.350Z,21.50
2022-08-19T21:04:27.512Z,21.50
2022-08-19T21:06:56.534Z,21.50
2022-08-19T21:09:24.680Z,21.50
2022-08-19T21:11:53.699Z,21.50
2022-08-19T21:14:23.206Z,21.50
2022-08-19T21:16:52.676Z,21.50
2022-08-19T21:19:24.142Z,21.50
2022-08-19T21:21:52.502Z,21.50
2022-08-19T21:24:20.619Z,21.50
2022-08-19T21:26:51.354Z,21.50
2022-08-19T21:29:19.965Z,21.50
2022-08-19T21:31:49.050Z,21.50
2022-08-19T21:34:19.055Z,21.50
2022-08-19T21:36:47.153Z,21.50
2022-08-19T21:39:15.709Z,21.60
2022-08-19T21:41:43.964Z,21.60
2022-08-19T21:44:12.689Z,21.60
2022-08-19T21:46:41.360Z,21.60
2022-08-19T21:49:09.670Z,21.60
2022-08-19T21:51:39.179Z,21.60
2022-08-19T21:54:07.477Z,21.60
2022-08-19T21:56:42.994Z,21.60
2022-08-19T21:59:11.883Z,21.60
2022-08-19T22:01:40.022Z,21.60
2022-08-19T22:04:08.614Z,21.60
2022-08-19T22:06:38.373Z,21.60
2022-08-19T22:09:06.958Z,21.60
2022-08-19T22:11:35.210Z,21.60
2022-08-19T22:14:03.923Z,21.60
2022-08-19T22:16:33.121Z,21.60
2022-08-19T22:19:01.252Z,21.60
2022-08-19T22:21:40.538Z,21.60
2022-08-19T22:24:10.928Z,21.60
2022-08-19T22:26:39.467Z,21.60
2022-08-19T22:29:08.320Z,21.60
2022-08-19T22:31:38.014Z,21.60
2022-08-19T22:34:06.618Z,21.60
2022-08-19T22:36:35.591Z,21.60
2022-08-19T22:39:05.626Z,21.60
2022-08-19T22:41:35.129Z,21.60
2022-08-19T22:44:04.325Z,21.60
2022-08-19T22:46:33.687Z,21.60
2022-08-19T22:49:02.297Z,21.60
2022-08-19T22:51:48.233Z,21.60
2022-08-19T22:54:17.038Z,21.60
2022-08-19T22:56:46.661Z,21.60
2022-08-19T22:59:15.246Z,21.60
2022-08-19T23:01:43.798Z,21.60
2022-08-19T23:04:12.225Z,21.60
2022-08-19T23:06:42.263Z,21.60
2022-08-19T23:09:16.783Z,21.60
2022-08-19T23:11:48.182Z,21.60
2022-08-19T23:14:18.125Z,21.70
2022-08-19T23:16:51.057Z,21.60
2022-08-19T23:19:20.878Z,21.70
2022-08-19T23:21:49.095Z,21.70
2022-08-19T23:24:17.685Z,21.70
2022-08-19T23:27:01.519Z,21.70
2022-08-19T23:29:48.594Z,21.70
2022-08-19T23:32:17.387Z,21.70
2022-08-19T23:34:45.628Z,21.70
2022-08-19T23:37:14.590Z,21.70
2022-08-19T23:39:44.594Z,21.70
2022-08-19T23:42:15.884Z,21.70
2022-08-19T23:44:51.476Z,21.70
2022-08-19T23:47:21.066Z,21.70
2022-08-19T23:49:49.629Z,21.70
2022-08-19T23:52:18.183Z,21.70
2022-08-19T23:54:46.333Z,21.70
2022-08-19T23:57:16.565Z,21.70
2022-08-19T23:59:46.147Z,21.70
